createdAt,value
2019-02-27T00:01:36.166Z,10.97
2019-02-27T00:04:05.613Z,11.30
2019-02-27T00:06:34.646Z,10.83
2019-02-27T00:09:05.249Z,12.33
2019-02-27T00:11:34.418Z,12.10
2019-02-27T00:14:03.499Z,11.70
2019-02-27T00:16:32.565Z,11.33
2019-02-27T00:19:01.751Z,11.33
2019-02-27T00:21:30.854Z,10.90
2019-02-27T00:24:00.044Z,11.50
2019-02-27T00:26:29.257Z,10.53
2019-02-27T00:28:58.422Z,10.67
2019-02-27T00:31:27.588Z,10.50
2019-02-27T00:33:59.929Z,11.47
2019-02-27T00:36:27.886Z,10.10
2019-02-27T00:38:57.908Z,11.03
2019-02-27T00:41:27.699Z,10.97
2019-02-27T00:44:01.060Z,11.03
2019-02-27T00:46:27.732Z,10.80
2019-02-27T00:48:59.092Z,10.53
2019-02-27T00:51:27.748Z,10.47
2019-02-27T00:53:58.353Z,11.27
2019-02-27T00:56:27.614Z,11.07
2019-02-27T00:58:59.890Z,10.13
2019-02-27T01:01:28.080Z,10.83
2019-02-27T01:04:00.990Z,10.60
2019-02-27T01:06:28.027Z,10.40
2019-02-27T01:08:57.595Z,9.37
2019-02-27T01:11:26.786Z,9.83
2019-02-27T01:13:56.156Z,10.17
2019-02-27T01:16:25.764Z,8.93
2019-02-27T01:18:54.863Z,11.00
2019-02-27T01:21:24.039Z,10.03
2019-02-27T01:23:53.254Z,10.03
2019-02-27T01:26:22.377Z,10.30
2019-02-27T01:28:51.446Z,10.57
2019-02-27T01:31:21.952Z,10.63
2019-02-27T01:33:51.927Z,9.90
2019-02-27T01:36:21.782Z,10.60
2019-02-27T01:38:52.311Z,10.40
2019-02-27T01:41:24.345Z,11.43
2019-02-27T01:43:52.664Z,9.90
2019-02-27T01:46:21.772Z,9.00
2019-02-27T01:48:50.838Z,9.87
2019-02-27T01:51:20.327Z,9.13
2019-02-27T01:53:49.321Z,9.37
2019-02-27T01:56:18.349Z,9.00
2019-02-27T01:58:48.064Z,10.50
2019-02-27T02:01:17.155Z,10.77
2019-02-27T02:03:47.484Z,9.70
2019-02-27T02:06:17.084Z,10.00
2019-02-27T02:08:48.264Z,10.90
2019-02-27T02:11:17.199Z,9.30
2019-02-27T02:14:07.504Z,9.83
2019-02-27T02:16:56.690Z,9.70
2019-02-27T02:19:39.039Z,10.97
2019-02-27T02:22:14.314Z,10.10
2019-02-27T02:25:02.430Z,9.70
2019-02-27T02:27:53.240Z,9.30
2019-02-27T02:30:41.376Z,9.57
2019-02-27T02:33:18.984Z,10.07
2019-02-27T02:36:06.385Z,9.00
2019-02-27T02:38:43.296Z,10.17
2019-02-27T02:41:28.689Z,9.80
2019-02-27T02:44:31.860Z,9.60
2019-02-27T02:47:25.409Z,9.40
2019-02-27T02:50:22.582Z,8.83
2019-02-27T02:53:09.816Z,9.63
2019-02-27T02:55:57.835Z,9.40
2019-02-27T02:58:36.012Z,9.10
2019-02-27T03:01:14.161Z,9.60
2019-02-27T03:03:52.887Z,8.83
2019-02-27T03:06:34.590Z,8.30
2019-02-27T03:09:30.340Z,9.67
2019-02-27T03:12:29.894Z,8.43
2019-02-27T03:15:20.906Z,8.90
2019-02-27T03:17:57.026Z,9.80
2019-02-27T03:20:40.479Z,9.03
2019-02-27T03:23:23.993Z,8.67
2019-02-27T03:25:56.046Z,9.63
2019-02-27T03:28:53.193Z,9.60
2019-02-27T03:31:57.553Z,8.90
2019-02-27T03:34:47.885Z,8.47
2019-02-27T03:37:24.172Z,9.93
2019-02-27T03:40:00.367Z,8.67
2019-02-27T03:42:46.763Z,8.83
2019-02-27T03:45:37.633Z,8.97
2019-02-27T03:48:27.560Z,9.20
2019-02-27T03:51:04.700Z,8.40
2019-02-27T03:53:46.403Z,8.63
2019-02-27T03:56:33.322Z,8.60
2019-02-27T03:59:24.312Z,9.50
2019-02-27T04:02:21.275Z,8.80
2019-02-27T04:04:57.437Z,8.10
2019-02-27T04:07:42.789Z,7.43
2019-02-27T04:10:11.914Z,8.30
2019-02-27T04:12:41.416Z,7.40
2019-02-27T04:15:10.593Z,7.30
2019-02-27T04:17:39.299Z,7.80
2019-02-27T04:20:14.617Z,7.60
2019-02-27T04:22:39.529Z,7.20
2019-02-27T04:25:08.657Z,7.90
2019-02-27T04:27:37.791Z,7.67
2019-02-27T04:30:06.731Z,7.50
2019-02-27T04:32:36.324Z,7.67
2019-02-27T04:35:06.314Z,6.63
2019-02-27T04:37:35.935Z,7.60
2019-02-27T04:40:05.503Z,7.30
2019-02-27T04:42:34.612Z,7.27
2019-02-27T04:45:03.708Z,7.20
2019-02-27T04:47:32.900Z,7.73
2019-02-27T04:50:02.221Z,7.27
2019-02-27T04:52:31.418Z,6.90
2019-02-27T04:55:00.899Z,8.40
2019-02-27T04:57:30.813Z,7.70
2019-02-27T05:00:00.827Z,6.10
2019-02-27T05:02:30.023Z,7.87
2019-02-27T05:04:58.903Z,8.10
2019-02-27T05:07:27.902Z,7.23
2019-02-27T05:09:57.343Z,6.90
2019-02-27T05:12:26.422Z,7.23
2019-02-27T05:14:55.763Z,7.50
2019-02-27T05:17:24.824Z,7.83
2019-02-27T05:19:53.801Z,8.30
2019-02-27T05:22:26.217Z,7.50
2019-02-27T05:24:53.629Z,8.47
2019-02-27T05:27:22.818Z,7.07
2019-02-27T05:29:52.008Z,7.13
2019-02-27T05:32:21.099Z,7.40
2019-02-27T05:34:50.563Z,7.20
2019-02-27T05:37:19.603Z,7.43
2019-02-27T05:39:50.729Z,8.60
2019-02-27T05:42:19.525Z,8.27
2019-02-27T05:44:48.637Z,9.10
2019-02-27T05:47:17.717Z,7.93
2019-02-27T05:49:46.913Z,8.00
2019-02-27T05:52:15.833Z,8.60
2019-02-27T05:54:45.090Z,7.37
2019-02-27T05:57:15.152Z,6.87
2019-02-27T05:59:44.117Z,7.87
2019-02-27T06:02:13.298Z,7.60
2019-02-27T06:04:42.720Z,8.77
2019-02-27T06:07:11.613Z,7.30
2019-02-27T06:09:41.479Z,7.50
2019-02-27T06:12:11.717Z,8.30
2019-02-27T06:14:40.918Z,8.33
2019-02-27T06:17:12.466Z,9.00
2019-02-27T06:19:40.760Z,8.30
2019-02-27T06:22:09.938Z,8.00
2019-02-27T06:24:39.476Z,8.30
2019-02-27T06:27:08.557Z,9.03
2019-02-27T06:29:37.632Z,8.97
2019-02-27T06:32:07.102Z,8.60
2019-02-27T06:34:36.132Z,8.43
2019-02-27T06:37:05.248Z,7.40
2019-02-27T06:39:35.282Z,7.60
2019-02-27T06:42:04.991Z,8.37
2019-02-27T06:44:36.632Z,8.37
2019-02-27T06:47:07.211Z,8.33
2019-02-27T06:49:36.925Z,8.90
2019-02-27T06:52:09.243Z,7.87
2019-02-27T06:54:39.050Z,8.60
2019-02-27T06:57:08.745Z,7.20
2019-02-27T06:59:39.118Z,9.13
2019-02-27T07:02:08.861Z,7.77
2019-02-27T07:04:39.482Z,8.70
2019-02-27T07:07:09.945Z,7.37
2019-02-27T07:09:39.855Z,7.90
2019-02-27T07:12:09.640Z,7.70
2019-02-27T07:14:39.951Z,7.50
2019-02-27T07:17:10.080Z,6.70
2019-02-27T07:19:42.764Z,6.43
2019-02-27T07:22:12.660Z,7.63
2019-02-27T07:24:42.611Z,7.83
2019-02-27T07:27:12.758Z,6.93
2019-02-27T07:29:42.992Z,7.30
2019-02-27T07:32:12.756Z,7.90
2019-02-27T07:34:42.714Z,7.27
2019-02-27T07:37:12.993Z,7.43
2019-02-27T07:39:43.353Z,7.27
2019-02-27T07:42:12.954Z,7.50
2019-02-27T07:44:42.507Z,7.73
2019-02-27T07:47:12.353Z,7.97
2019-02-27T07:49:42.296Z,7.30
2019-02-27T07:52:11.935Z,7.35
2019-02-27T07:59:39.809Z,7.53
2019-02-27T08:02:10.315Z,6.53
2019-02-27T08:04:40.039Z,6.13
2019-02-27T08:07:12.175Z,7.00
2019-02-27T08:09:43.050Z,6.33
2019-02-27T08:12:12.704Z,5.97
2019-02-27T08:14:42.633Z,6.93
2019-02-27T08:17:17.665Z,6.70
2019-02-27T08:19:45.352Z,7.20
2019-02-27T08:22:15.427Z,6.57
2019-02-27T08:24:45.111Z,6.90
2019-02-27T08:27:15.065Z,6.73
2019-02-27T08:29:45.130Z,6.83
2019-02-27T08:32:14.878Z,6.40
2019-02-27T08:34:44.625Z,7.27
2019-02-27T08:37:14.308Z,6.40
2019-02-27T08:39:43.972Z,6.40
2019-02-27T08:42:15.666Z,6.30
2019-02-27T08:44:45.793Z,6.03
2019-02-27T08:47:16.198Z,6.47
2019-02-27T08:49:45.834Z,5.93
2019-02-27T08:52:16.281Z,6.43
2019-02-27T08:54:46.311Z,6.27
2019-02-27T08:57:15.913Z,6.10
2019-02-27T08:59:45.616Z,6.30
2019-02-27T09:02:15.891Z,5.63
2019-02-27T09:04:46.286Z,6.43
2019-02-27T09:07:15.927Z,5.40
2019-02-27T09:09:45.906Z,5.90
2019-02-27T09:12:15.698Z,5.63
2019-02-27T09:14:45.823Z,6.70
2019-02-27T09:17:15.409Z,5.70
2019-02-27T09:19:46.408Z,5.60
2019-02-27T09:22:16.254Z,6.03
2019-02-27T09:24:45.958Z,6.33
2019-02-27T09:27:15.691Z,5.90
2019-02-27T09:29:45.306Z,6.67
2019-02-27T09:32:15.091Z,6.60
2019-02-27T09:34:44.793Z,6.20
2019-02-27T09:37:16.916Z,5.53
2019-02-27T09:39:46.184Z,5.57
2019-02-27T09:42:18.771Z,5.83
2019-02-27T09:44:47.951Z,5.37
2019-02-27T09:47:17.957Z,5.30
2019-02-27T09:49:47.768Z,6.37
2019-02-27T09:52:17.507Z,5.43
2019-02-27T09:54:47.608Z,6.53
2019-02-27T09:57:17.690Z,6.70
2019-02-27T09:59:47.428Z,7.37
2019-02-27T10:02:17.145Z,8.20
2019-02-27T10:04:47.122Z,8.60
2019-02-27T10:07:17.073Z,8.50
2019-02-27T10:09:47.391Z,8.40
2019-02-27T10:12:17.063Z,8.60
2019-02-27T10:14:47.889Z,7.67
2019-02-27T10:17:18.990Z,6.13
2019-02-27T10:19:48.675Z,6.13
2019-02-27T10:22:20.317Z,6.43
2019-02-27T10:24:49.681Z,6.60
2019-02-27T10:27:20.654Z,7.13
2019-02-27T10:29:51.064Z,6.33
2019-02-27T10:32:21.103Z,7.00
2019-02-27T10:34:53.550Z,6.80
2019-02-27T10:37:22.647Z,6.97
2019-02-27T10:39:52.433Z,7.90
2019-02-27T10:42:22.132Z,8.30
2019-02-27T10:44:52.338Z,8.70
2019-02-27T10:47:22.037Z,9.30
2019-02-27T10:49:51.839Z,8.37
2019-02-27T10:52:24.252Z,7.90
2019-02-27T10:54:52.841Z,8.57
2019-02-27T10:57:22.481Z,8.95
2019-02-27T10:59:52.179Z,8.43
2019-02-27T11:02:23.452Z,8.47
2019-02-27T11:04:53.229Z,9.33
2019-02-27T11:07:22.945Z,9.20
2019-02-27T11:09:52.849Z,8.70
2019-02-27T11:12:22.579Z,8.60
2019-02-27T11:14:52.510Z,8.40
2019-02-27T11:17:22.206Z,9.30
2019-02-27T11:19:51.951Z,8.50
2019-02-27T11:22:21.625Z,8.17
2019-02-27T11:24:52.474Z,8.93
2019-02-27T11:27:22.469Z,8.33
2019-02-27T11:29:52.298Z,8.00
2019-02-27T11:32:23.876Z,8.10
2019-02-27T11:34:53.700Z,7.33
2019-02-27T11:37:23.350Z,8.33
2019-02-27T11:39:53.089Z,7.63
2019-02-27T11:42:22.972Z,7.97
2019-02-27T11:44:52.737Z,8.30
2019-02-27T11:47:22.754Z,8.80
2019-02-27T11:49:52.721Z,8.83
2019-02-27T11:52:28.629Z,7.50
2019-02-27T11:54:57.972Z,7.23
2019-02-27T11:57:30.524Z,7.90
2019-02-27T11:59:59.019Z,7.97
2019-02-27T12:02:31.195Z,8.20
2019-02-27T12:05:00.459Z,10.13
2019-02-27T12:07:30.579Z,7.60
2019-02-27T12:10:00.355Z,8.50
2019-02-27T12:12:30.130Z,9.00
2019-02-27T12:14:59.868Z,8.30
2019-02-27T12:17:29.569Z,8.30
2019-02-27T12:19:59.271Z,7.53
2019-02-27T12:22:29.307Z,8.30
2019-02-27T12:24:58.990Z,8.57
2019-02-27T12:27:47.909Z,7.97
2019-02-27T12:30:02.750Z,8.20
2019-02-27T12:32:31.818Z,6.80
2019-02-27T12:35:03.080Z,9.80
2019-02-27T12:37:34.753Z,8.00
2019-02-27T12:40:05.285Z,7.70
2019-02-27T12:42:37.328Z,8.30
2019-02-27T12:45:08.086Z,9.97
2019-02-27T12:47:40.807Z,8.43
2019-02-27T12:50:10.735Z,8.53
2019-02-27T12:52:44.346Z,9.43
2019-02-27T12:55:12.812Z,8.70
2019-02-27T12:57:42.495Z,8.17
2019-02-27T13:00:15.680Z,8.63
2019-02-27T13:02:46.090Z,8.27
2019-02-27T13:05:16.464Z,8.90
2019-02-27T13:07:46.635Z,6.80
2019-02-27T13:10:17.880Z,7.40
2019-02-27T13:12:49.147Z,8.57
2019-02-27T13:15:22.419Z,8.93
2019-02-27T13:17:55.952Z,8.10
2019-02-27T13:20:25.486Z,8.37
2019-02-27T13:22:55.875Z,8.17
2019-02-27T13:25:25.692Z,9.00
2019-02-27T13:27:55.405Z,8.60
2019-02-27T13:30:25.180Z,8.53
2019-02-27T13:32:54.951Z,8.83
2019-02-27T13:35:25.084Z,8.13
2019-02-27T13:37:54.721Z,7.70
2019-02-27T13:40:24.509Z,7.90
2019-02-27T13:42:54.230Z,8.13
2019-02-27T13:45:24.988Z,7.93
2019-02-27T13:47:54.783Z,7.30
2019-02-27T13:50:26.802Z,7.00
2019-02-27T13:52:56.348Z,7.23
2019-02-27T13:55:26.132Z,8.40
2019-02-27T13:57:58.805Z,8.50
2019-02-27T14:00:28.953Z,7.90
2019-02-27T14:03:00.059Z,8.00
2019-02-27T14:05:32.574Z,7.70
2019-02-27T14:08:01.402Z,7.80
2019-02-27T14:10:31.196Z,7.87
2019-02-27T14:13:01.106Z,7.30
2019-02-27T14:15:31.726Z,7.50
2019-02-27T14:18:01.958Z,7.07
2019-02-27T14:20:31.948Z,6.80
2019-02-27T14:23:01.747Z,7.90
2019-02-27T14:25:33.445Z,6.80
2019-02-27T14:28:03.421Z,7.57
2019-02-27T14:30:36.617Z,7.27
2019-02-27T14:33:06.565Z,6.27
2019-02-27T14:35:36.735Z,5.10
2019-02-27T14:38:06.993Z,6.70
2019-02-27T14:40:39.513Z,6.60
2019-02-27T14:43:08.628Z,6.53
2019-02-27T14:45:40.662Z,6.90
2019-02-27T14:48:09.943Z,6.33
2019-02-27T14:50:40.221Z,5.87
2019-02-27T14:53:10.329Z,6.17
2019-02-27T14:55:39.955Z,5.90
2019-02-27T14:58:09.511Z,6.17
2019-02-27T15:00:41.004Z,6.27
2019-02-27T15:03:10.852Z,5.90
2019-02-27T15:05:44.730Z,6.50
2019-02-27T15:08:12.275Z,6.30
2019-02-27T15:10:42.369Z,7.07
2019-02-27T15:13:12.318Z,6.33
2019-02-27T15:15:43.699Z,6.77
2019-02-27T15:18:14.154Z,6.07
2019-02-27T15:20:44.052Z,6.00
2019-02-27T15:23:14.026Z,6.40
2019-02-27T15:25:43.630Z,5.97
2019-02-27T15:28:13.504Z,6.20
2019-02-27T15:30:46.450Z,6.10
2019-02-27T15:33:16.424Z,5.77
2019-02-27T15:35:46.207Z,5.83
2019-02-27T15:38:15.888Z,6.37
2019-02-27T15:40:45.564Z,6.50
2019-02-27T15:43:17.308Z,6.20
2019-02-27T15:45:47.975Z,5.80
2019-02-27T15:48:18.647Z,6.40
2019-02-27T15:50:48.295Z,7.00
2019-02-27T15:53:18.230Z,5.83
2019-02-27T15:55:47.814Z,5.40
2019-02-27T15:58:17.858Z,6.50
2019-02-27T16:00:52.181Z,6.80
2019-02-27T16:03:19.163Z,6.60
2019-02-27T16:05:48.793Z,6.20
2019-02-27T16:08:22.481Z,7.30
2019-02-27T16:10:54.750Z,6.77
2019-02-27T16:13:21.417Z,7.00
2019-02-27T16:15:51.476Z,6.73
2019-02-27T16:18:21.264Z,6.67
2019-02-27T16:20:50.940Z,6.43
2019-02-27T16:23:20.625Z,7.13
2019-02-27T16:25:54.137Z,6.93
2019-02-27T16:28:21.406Z,6.77
2019-02-27T16:30:51.086Z,6.33
2019-02-27T16:33:24.038Z,7.07
2019-02-27T16:35:52.799Z,7.13
2019-02-27T16:38:22.492Z,7.33
2019-02-27T16:40:53.463Z,7.33
2019-02-27T16:43:23.302Z,6.00
2019-02-27T16:45:53.306Z,6.63
2019-02-27T16:48:22.954Z,6.43
2019-02-27T16:50:52.679Z,6.03
2019-02-27T16:53:22.334Z,7.03
2019-02-27T16:55:52.259Z,7.67
2019-02-27T16:58:21.864Z,6.90
2019-02-27T17:00:55.421Z,8.17
2019-02-27T17:03:24.072Z,6.87
2019-02-27T17:05:54.203Z,6.63
2019-02-27T17:08:23.884Z,6.47
2019-02-27T17:10:53.612Z,7.30
2019-02-27T17:13:23.785Z,6.40
2019-02-27T17:15:53.447Z,6.40
2019-02-27T17:18:27.840Z,7.27
2019-02-27T17:20:54.810Z,6.90
2019-02-27T17:23:25.007Z,7.13
2019-02-27T17:25:54.985Z,6.60
2019-02-27T17:28:24.670Z,6.10
2019-02-27T17:30:54.669Z,6.40
2019-02-27T17:33:24.781Z,6.57
2019-02-27T17:35:58.504Z,6.43
2019-02-27T17:38:25.928Z,7.17
2019-02-27T17:40:55.626Z,7.80
2019-02-27T17:43:29.535Z,8.37
2019-02-27T17:45:57.593Z,7.37
2019-02-27T17:48:27.650Z,6.37
2019-02-27T17:50:57.433Z,7.20
2019-02-27T17:53:27.405Z,7.20
2019-02-27T17:55:57.059Z,7.03
2019-02-27T17:58:31.885Z,7.23
2019-02-27T18:01:02.059Z,6.33
2019-02-27T18:03:31.704Z,7.63
2019-02-27T18:06:01.313Z,7.80
2019-02-27T18:08:31.442Z,8.33
2019-02-27T18:11:01.100Z,7.80
2019-02-27T18:13:35.358Z,8.03
2019-02-27T18:16:02.190Z,8.30
2019-02-27T18:18:31.895Z,7.70
2019-02-27T18:21:01.506Z,8.27
2019-02-27T18:23:31.464Z,9.07
2019-02-27T18:26:01.336Z,8.07
2019-02-27T18:28:32.934Z,7.97
2019-02-27T18:31:02.288Z,7.53
2019-02-27T18:33:32.371Z,7.67
2019-02-27T18:36:04.877Z,8.17
2019-02-27T18:38:33.233Z,8.97
2019-02-27T18:41:02.961Z,9.47
2019-02-27T18:43:32.624Z,10.13
2019-02-27T18:46:02.288Z,10.30
2019-02-27T18:48:32.050Z,11.80
2019-02-27T18:51:02.007Z,13.53
2019-02-27T18:53:32.341Z,12.07
2019-02-27T18:56:02.747Z,13.73
2019-02-27T18:58:32.346Z,12.87
2019-02-27T19:01:02.190Z,12.93
2019-02-27T19:03:31.891Z,12.00
2019-02-27T19:06:01.728Z,13.27
2019-02-27T19:08:31.951Z,13.80
2019-02-27T19:11:01.654Z,13.13
2019-02-27T19:13:32.348Z,11.93
2019-02-27T19:16:02.093Z,11.13
2019-02-27T19:18:32.077Z,14.07
2019-02-27T19:21:01.887Z,15.97
2019-02-27T19:23:31.598Z,14.80
2019-02-27T19:26:01.721Z,14.67
2019-02-27T19:28:31.440Z,14.40
2019-02-27T19:31:01.587Z,12.30
2019-02-27T19:33:32.510Z,12.87
2019-02-27T19:36:02.928Z,13.40
2019-02-27T19:38:32.904Z,13.03
2019-02-27T19:41:04.139Z,10.53
2019-02-27T19:43:34.342Z,10.20
2019-02-27T19:46:04.249Z,10.87
2019-02-27T19:48:33.871Z,10.40
2019-02-27T19:51:03.542Z,11.17
2019-02-27T19:53:33.229Z,10.30
2019-02-27T19:56:03.058Z,10.47
2019-02-27T19:58:33.240Z,9.53
2019-02-27T20:01:03.431Z,9.80
2019-02-27T20:03:35.454Z,11.43
2019-02-27T20:06:05.432Z,9.43
2019-02-27T20:08:37.267Z,9.63
2019-02-27T20:11:07.446Z,9.40
2019-02-27T20:13:38.154Z,9.17
2019-02-27T20:16:08.062Z,10.40
2019-02-27T20:18:40.541Z,8.70
2019-02-27T20:21:10.522Z,9.53
2019-02-27T20:23:40.410Z,9.60
2019-02-27T20:26:14.085Z,10.13
2019-02-27T20:28:41.638Z,10.23
2019-02-27T20:31:11.298Z,11.30
2019-02-27T20:33:41.075Z,10.30
2019-02-27T20:36:11.268Z,10.90
2019-02-27T20:38:41.691Z,8.10
2019-02-27T20:41:12.819Z,10.40
2019-02-27T20:43:42.543Z,9.93
2019-02-27T20:46:14.692Z,11.27
2019-02-27T20:48:44.516Z,10.90
2019-02-27T20:51:15.208Z,11.00
2019-02-27T20:53:45.111Z,11.63
2019-02-27T20:56:15.150Z,12.03
2019-02-27T20:58:44.815Z,11.47
2019-02-27T21:01:14.474Z,13.40
2019-02-27T21:03:44.130Z,11.60
2019-02-27T21:06:13.946Z,12.10
2019-02-27T21:08:43.637Z,12.80
2019-02-27T21:11:13.742Z,13.90
2019-02-27T21:13:43.895Z,12.03
2019-02-27T21:16:13.565Z,12.63
2019-02-27T21:18:43.567Z,12.37
2019-02-27T21:21:13.451Z,13.53
2019-02-27T21:23:43.046Z,12.60
2019-02-27T21:26:12.962Z,12.43
2019-02-27T21:28:42.932Z,13.90
2019-02-27T21:31:13.042Z,12.37
2019-02-27T21:33:45.719Z,13.83
2019-02-27T21:36:14.741Z,13.57
2019-02-27T21:38:47.506Z,13.70
2019-02-27T21:41:16.176Z,12.70
2019-02-27T21:43:45.920Z,14.43
2019-02-27T21:46:15.558Z,13.53
2019-02-27T21:48:45.712Z,12.60
2019-02-27T21:51:16.264Z,13.50
2019-02-27T21:53:45.998Z,15.83
2019-02-27T21:56:18.093Z,14.07
2019-02-27T21:58:48.713Z,14.80
2019-02-27T22:01:19.242Z,13.90
2019-02-27T22:03:50.727Z,13.73
2019-02-27T22:06:21.672Z,14.60
2019-02-27T22:08:51.702Z,16.30
2019-02-27T22:11:24.253Z,14.30
2019-02-27T22:13:53.268Z,15.00
2019-02-27T22:16:23.620Z,14.40
2019-02-27T22:18:53.783Z,14.60
2019-02-27T22:21:23.822Z,14.77
2019-02-27T22:23:53.827Z,16.13
2019-02-27T22:26:23.937Z,14.10
2019-02-27T22:28:54.387Z,15.60
2019-02-27T22:31:25.052Z,15.33
2019-02-27T22:33:56.233Z,15.03
2019-02-27T22:36:27.500Z,14.90
2019-02-27T22:39:00.253Z,14.60
2019-02-27T22:41:28.552Z,15.67
2019-02-27T22:43:58.775Z,15.70
2019-02-27T22:46:28.406Z,16.70
2019-02-27T22:48:59.972Z,16.33
2019-02-27T22:51:29.560Z,16.07
2019-02-27T22:53:59.442Z,16.37
2019-02-27T22:56:30.929Z,17.43
2019-02-27T22:59:03.004Z,15.37
2019-02-27T23:01:49.258Z,18.10
2019-02-27T23:04:16.527Z,16.60
2019-02-27T23:06:47.169Z,16.57
2019-02-27T23:09:19.751Z,16.23
2019-02-27T23:11:50.372Z,17.60
2019-02-27T23:14:20.156Z,16.70
2019-02-27T23:16:50.537Z,17.90
2019-02-27T23:19:20.306Z,18.00
2019-02-27T23:21:50.302Z,17.60
2019-02-27T23:24:20.438Z,17.03
2019-02-27T23:26:54.171Z,18.57
2019-02-27T23:29:21.897Z,17.53
2019-02-27T23:31:54.816Z,18.63
2019-02-27T23:34:23.171Z,18.20
2019-02-27T23:36:55.642Z,18.90
2019-02-27T23:39:24.403Z,18.93
2019-02-27T23:41:56.583Z,18.97
2019-02-27T23:44:26.394Z,21.70
2019-02-27T23:46:57.482Z,18.43
2019-02-27T23:49:28.275Z,19.43
2019-02-27T23:51:58.171Z,19.33
2019-02-27T23:54:27.987Z,19.73
2019-02-27T23:56:57.835Z,20.47
2019-02-27T23:59:27.525Z,19.23
